AAL715 KPHX-KLAX
Flight info
| Callsign | AAL715 |
|---|---|
| Flight time | 0h 54m |
| Altitude | 34000 |
| Route | KEENS3 WLVRN ESTWD HLYWD1 |
| Aircraft | A320/M-SDE3FGHIRWY/LB1 |
Departure
| Time | 2026-04-26 03:32 |
|---|---|
| Airport | Phoenix Sky Harbor International Airport (KPHX) |
Arrival
| Time | 2026-04-26 04:27 |
|---|---|
| Airport | Los Angeles International Airport (KLAX) |
| Time | Latitude | Longitude | Altitude | Speed | Heading |
|---|---|---|---|---|---|
| 2026-04-26 03:17 | 33.43373 | -111.99628 | 1124 ft | 0 kts | 317° |
| 2026-04-26 03:24 | 33.43367 | -111.99621 | 1124 ft | 4 kts | 315° |
| 2026-04-26 03:25 | 33.43351 | -111.99597 | 1113 ft | 4 kts | 290° |
| 2026-04-26 03:25 | 33.43348 | -111.99576 | 1113 ft | 4 kts | 207° |
| 2026-04-26 03:25 | 33.43355 | -111.99574 | 1113 ft | 1 kts | 180° |
| 2026-04-26 03:25 | 33.43356 | -111.99574 | 1115 ft | 0 kts | 180° |
| 2026-04-26 03:28 | 33.43331 | -111.99573 | 1116 ft | 4 kts | 178° |
| 2026-04-26 03:29 | 33.43278 | -111.99563 | 1118 ft | 10 kts | 169° |
| 2026-04-26 03:29 | 33.43222 | -111.99535 | 1122 ft | 8 kts | 136° |
| 2026-04-26 03:29 | 33.43211 | -111.99490 | 1123 ft | 4 kts | 99° |
| 2026-04-26 03:29 | 33.43212 | -111.99451 | 1123 ft | 8 kts | 88° |
| 2026-04-26 03:30 | 33.43213 | -111.99386 | 1117 ft | 7 kts | 92° |
| 2026-04-26 03:30 | 33.43193 | -111.99345 | 1119 ft | 5 kts | 140° |
| 2026-04-26 03:30 | 33.43159 | -111.99339 | 1119 ft | 6 kts | 185° |
| 2026-04-26 03:30 | 33.43124 | -111.99362 | 1114 ft | 5 kts | 226° |
| 2026-04-26 03:31 | 33.43107 | -111.99395 | 1123 ft | 4 kts | 250° |
| 2026-04-26 03:31 | 33.43105 | -111.99490 | 1123 ft | 35 kts | 270° |
| 2026-04-26 03:31 | 33.43104 | -112.00042 | 1124 ft | 95 kts | 270° |
| 2026-04-26 03:31 | 33.43103 | -112.01033 | 1124 ft | 141 kts | 270° |
| 2026-04-26 03:32 | 33.43111 | -112.02331 | 1380 ft | 157 kts | 269° |
| 2026-04-26 03:32 | 33.43066 | -112.03629 | 1985 ft | 157 kts | 264° |
| 2026-04-26 03:32 | 33.42968 | -112.04940 | 2552 ft | 158 kts | 265° |
| 2026-04-26 03:32 | 33.42897 | -112.06257 | 3101 ft | 161 kts | 267° |
| 2026-04-26 03:33 | 33.42852 | -112.07183 | 3288 ft | 174 kts | 265° |
| 2026-04-26 03:33 | 33.42522 | -112.08668 | 3498 ft | 197 kts | 249° |
| 2026-04-26 03:33 | 33.41998 | -112.10303 | 3733 ft | 223 kts | 250° |
| 2026-04-26 03:33 | 33.41419 | -112.12133 | 4107 ft | 247 kts | 250° |
| 2026-04-26 03:34 | 33.40798 | -112.14108 | 4785 ft | 257 kts | 250° |
| 2026-04-26 03:34 | 33.40163 | -112.16133 | 5626 ft | 262 kts | 250° |
| 2026-04-26 03:34 | 33.39534 | -112.18191 | 6469 ft | 265 kts | 254° |
| 2026-04-26 03:34 | 33.39250 | -112.20379 | 7287 ft | 268 kts | 270° |
| 2026-04-26 03:35 | 33.39460 | -112.22582 | 8095 ft | 272 kts | 280° |
| 2026-04-26 03:35 | 33.39800 | -112.24820 | 8904 ft | 275 kts | 280° |
| 2026-04-26 03:35 | 33.40143 | -112.27092 | 9686 ft | 278 kts | 280° |
| 2026-04-26 03:35 | 33.40486 | -112.29381 | 10432 ft | 282 kts | 279° |
| 2026-04-26 03:36 | 33.40843 | -112.31782 | 10702 ft | 304 kts | 279° |
| 2026-04-26 03:36 | 33.41227 | -112.34374 | 10852 ft | 327 kts | 279° |
| 2026-04-26 03:36 | 33.41638 | -112.37148 | 10975 ft | 349 kts | 279° |
| 2026-04-26 03:36 | 33.42072 | -112.40081 | 11292 ft | 364 kts | 279° |
| 2026-04-26 03:37 | 33.42519 | -112.43085 | 11861 ft | 369 kts | 279° |
| 2026-04-26 03:37 | 33.42968 | -112.46125 | 12461 ft | 373 kts | 279° |
| 2026-04-26 03:37 | 33.43420 | -112.49191 | 13066 ft | 376 kts | 279° |
| 2026-04-26 03:37 | 33.43876 | -112.52290 | 13676 ft | 379 kts | 279° |
| 2026-04-26 03:38 | 33.44336 | -112.55415 | 14273 ft | 383 kts | 279° |
| 2026-04-26 03:38 | 33.44795 | -112.58566 | 14868 ft | 386 kts | 279° |
| 2026-04-26 03:38 | 33.45046 | -112.61732 | 15445 ft | 390 kts | 271° |
| 2026-04-26 03:38 | 33.45078 | -112.64988 | 16017 ft | 393 kts | 270° |
| 2026-04-26 03:39 | 33.45116 | -112.68273 | 16572 ft | 396 kts | 271° |
| 2026-04-26 03:39 | 33.45159 | -112.71585 | 17127 ft | 399 kts | 271° |
| 2026-04-26 03:39 | 33.45204 | -112.74923 | 17671 ft | 402 kts | 271° |
| 2026-04-26 03:39 | 33.45329 | -112.78283 | 18183 ft | 406 kts | 277° |
| 2026-04-26 03:40 | 33.45911 | -112.81602 | 18688 ft | 409 kts | 287° |
| 2026-04-26 03:40 | 33.46954 | -112.84787 | 19193 ft | 413 kts | 292° |
| 2026-04-26 03:40 | 33.48085 | -112.87965 | 19681 ft | 416 kts | 292° |
| 2026-04-26 03:40 | 33.49213 | -112.91165 | 20154 ft | 419 kts | 292° |
| 2026-04-26 03:41 | 33.50343 | -112.94402 | 20607 ft | 422 kts | 292° |
| 2026-04-26 03:41 | 33.51476 | -112.97657 | 21031 ft | 424 kts | 292° |
| 2026-04-26 03:41 | 33.52613 | -113.00928 | 21419 ft | 427 kts | 292° |
| 2026-04-26 03:41 | 33.53758 | -113.04223 | 21812 ft | 429 kts | 292° |
| 2026-04-26 03:42 | 33.54911 | -113.07538 | 22166 ft | 432 kts | 292° |
| 2026-04-26 03:42 | 33.56076 | -113.10876 | 22519 ft | 435 kts | 292° |
| 2026-04-26 03:42 | 33.57232 | -113.14187 | 22882 ft | 437 kts | 292° |
| 2026-04-26 03:42 | 33.58408 | -113.17555 | 23221 ft | 439 kts | 292° |
| 2026-04-26 03:43 | 33.59588 | -113.20949 | 23553 ft | 441 kts | 292° |
| 2026-04-26 03:43 | 33.60767 | -113.24359 | 23871 ft | 443 kts | 292° |
| 2026-04-26 03:43 | 33.61949 | -113.27782 | 24189 ft | 445 kts | 292° |
| 2026-04-26 03:43 | 33.63138 | -113.31227 | 24509 ft | 448 kts | 292° |
| 2026-04-26 03:44 | 33.64334 | -113.34688 | 24810 ft | 450 kts | 292° |
| 2026-04-26 03:44 | 33.65538 | -113.38165 | 25108 ft | 452 kts | 292° |
| 2026-04-26 03:44 | 33.66743 | -113.41651 | 25458 ft | 452 kts | 292° |
| 2026-04-26 03:44 | 33.67947 | -113.45145 | 25885 ft | 451 kts | 292° |
| 2026-04-26 03:45 | 33.69143 | -113.48623 | 26310 ft | 450 kts | 292° |
| 2026-04-26 03:45 | 33.70320 | -113.52049 | 26725 ft | 449 kts | 292° |
| 2026-04-26 03:45 | 33.71527 | -113.55561 | 27141 ft | 449 kts | 292° |
| 2026-04-26 03:45 | 33.72699 | -113.58981 | 27557 ft | 448 kts | 292° |
| 2026-04-26 03:46 | 33.73886 | -113.62440 | 27971 ft | 448 kts | 292° |
| 2026-04-26 03:46 | 33.75073 | -113.65900 | 28390 ft | 447 kts | 292° |
| 2026-04-26 03:46 | 33.76255 | -113.69358 | 28807 ft | 446 kts | 292° |
| 2026-04-26 03:47 | 33.78600 | -113.76251 | 29655 ft | 444 kts | 291° |
| 2026-04-26 03:47 | 33.79766 | -113.79683 | 30082 ft | 443 kts | 291° |
| 2026-04-26 03:47 | 33.80934 | -113.83108 | 30504 ft | 442 kts | 292° |
| 2026-04-26 03:47 | 33.82103 | -113.86528 | 30922 ft | 441 kts | 292° |
| 2026-04-26 03:48 | 33.83266 | -113.89932 | 31327 ft | 440 kts | 291° |
| 2026-04-26 03:48 | 33.84424 | -113.93340 | 31726 ft | 439 kts | 291° |
| 2026-04-26 03:48 | 33.85573 | -113.96733 | 32129 ft | 438 kts | 291° |
| 2026-04-26 03:48 | 33.86725 | -114.00129 | 32512 ft | 438 kts | 291° |
| 2026-04-26 03:49 | 33.87873 | -114.03515 | 32896 ft | 437 kts | 291° |
| 2026-04-26 03:49 | 33.89016 | -114.06899 | 33274 ft | 436 kts | 291° |
| 2026-04-26 03:49 | 33.90144 | -114.10288 | 33643 ft | 436 kts | 289° |
| 2026-04-26 03:49 | 33.90949 | -114.13798 | 33949 ft | 436 kts | 281° |
| 2026-04-26 03:50 | 33.91561 | -114.17377 | 34005 ft | 440 kts | 281° |
| 2026-04-26 03:50 | 33.92792 | -114.24658 | 34007 ft | 450 kts | 281° |
| 2026-04-26 03:51 | 33.94038 | -114.32074 | 34010 ft | 452 kts | 281° |
| 2026-04-26 03:51 | 33.95286 | -114.39486 | 34009 ft | 451 kts | 281° |
| 2026-04-26 03:52 | 33.96533 | -114.46887 | 34006 ft | 451 kts | 281° |
| 2026-04-26 03:52 | 33.97773 | -114.54286 | 34012 ft | 451 kts | 281° |
| 2026-04-26 03:53 | 33.99004 | -114.61664 | 34014 ft | 452 kts | 281° |
| 2026-04-26 03:53 | 34.00228 | -114.69022 | 34020 ft | 453 kts | 281° |
| 2026-04-26 03:54 | 34.00957 | -114.73430 | 34019 ft | 453 kts | 281° |
| 2026-04-26 03:54 | 34.02183 | -114.80875 | 34030 ft | 453 kts | 281° |
| 2026-04-26 03:55 | 34.03406 | -114.88333 | 34027 ft | 453 kts | 281° |
| 2026-04-26 03:55 | 34.04627 | -114.95792 | 34025 ft | 453 kts | 281° |
| 2026-04-26 03:56 | 34.05848 | -115.03262 | 34022 ft | 454 kts | 281° |
| 2026-04-26 03:56 | 34.07060 | -115.10683 | 34027 ft | 454 kts | 281° |
| 2026-04-26 03:57 | 34.08279 | -115.18161 | 34028 ft | 454 kts | 281° |
| 2026-04-26 03:57 | 34.09484 | -115.25646 | 34031 ft | 454 kts | 281° |
| 2026-04-26 03:58 | 34.10686 | -115.33142 | 34030 ft | 454 kts | 281° |
| 2026-04-26 03:58 | 34.11880 | -115.40575 | 34024 ft | 454 kts | 281° |
| 2026-04-26 03:59 | 34.13087 | -115.48069 | 34022 ft | 454 kts | 281° |
| 2026-04-26 03:59 | 34.14279 | -115.55573 | 34027 ft | 455 kts | 280° |
| 2026-04-26 04:00 | 34.15454 | -115.63075 | 34027 ft | 455 kts | 280° |
| 2026-04-26 04:00 | 34.16161 | -115.70656 | 34034 ft | 454 kts | 268° |
| 2026-04-26 04:01 | 34.15500 | -115.78185 | 34034 ft | 454 kts | 263° |
| 2026-04-26 04:01 | 34.14762 | -115.85761 | 34033 ft | 454 kts | 263° |
| 2026-04-26 04:02 | 34.14026 | -115.93329 | 34031 ft | 454 kts | 263° |
| 2026-04-26 04:02 | 34.13657 | -115.97125 | 33872 ft | 454 kts | 263° |
| 2026-04-26 04:02 | 34.13287 | -116.00914 | 33624 ft | 454 kts | 263° |
| 2026-04-26 04:02 | 34.12918 | -116.04696 | 33372 ft | 454 kts | 263° |
| 2026-04-26 04:03 | 34.12547 | -116.08486 | 33122 ft | 455 kts | 263° |
| 2026-04-26 04:03 | 34.12174 | -116.12280 | 32872 ft | 456 kts | 263° |
| 2026-04-26 04:03 | 34.11799 | -116.16082 | 32621 ft | 457 kts | 263° |
| 2026-04-26 04:03 | 34.11624 | -116.17858 | 32506 ft | 457 kts | 263° |
| 2026-04-26 04:04 | 34.11245 | -116.21674 | 32255 ft | 459 kts | 263° |
| 2026-04-26 04:04 | 34.10869 | -116.25450 | 32010 ft | 459 kts | 263° |
| 2026-04-26 04:04 | 34.10484 | -116.29280 | 31760 ft | 460 kts | 263° |
| 2026-04-26 04:04 | 34.10096 | -116.33113 | 31337 ft | 462 kts | 263° |
| 2026-04-26 04:05 | 34.09691 | -116.36980 | 30401 ft | 464 kts | 263° |
| 2026-04-26 04:05 | 34.09274 | -116.40854 | 29548 ft | 464 kts | 263° |
| 2026-04-26 04:05 | 34.08852 | -116.44711 | 28694 ft | 466 kts | 262° |
| 2026-04-26 04:05 | 34.08424 | -116.48598 | 27833 ft | 466 kts | 263° |
| 2026-04-26 04:06 | 34.08007 | -116.52428 | 27511 ft | 452 kts | 263° |
| 2026-04-26 04:06 | 34.07608 | -116.56124 | 27384 ft | 435 kts | 263° |
| 2026-04-26 04:06 | 34.07224 | -116.59692 | 27158 ft | 423 kts | 263° |
| 2026-04-26 04:06 | 34.06876 | -116.63182 | 26904 ft | 417 kts | 263° |
| 2026-04-26 04:07 | 34.06560 | -116.66595 | 26454 ft | 414 kts | 264° |
| 2026-04-26 04:07 | 34.06251 | -116.70043 | 25930 ft | 411 kts | 264° |
| 2026-04-26 04:07 | 34.05947 | -116.73455 | 25419 ft | 408 kts | 264° |
| 2026-04-26 04:07 | 34.05641 | -116.76841 | 24905 ft | 405 kts | 264° |
| 2026-04-26 04:08 | 34.05333 | -116.80211 | 24397 ft | 403 kts | 264° |
| 2026-04-26 04:08 | 34.05019 | -116.83563 | 23893 ft | 402 kts | 264° |
| 2026-04-26 04:08 | 34.04705 | -116.86902 | 23389 ft | 401 kts | 264° |
| 2026-04-26 04:08 | 34.04381 | -116.90231 | 22926 ft | 398 kts | 263° |
| 2026-04-26 04:09 | 34.04002 | -116.93513 | 22464 ft | 394 kts | 262° |
| 2026-04-26 04:09 | 34.03579 | -116.96746 | 21907 ft | 388 kts | 261° |
| 2026-04-26 04:09 | 34.03136 | -116.99949 | 21493 ft | 385 kts | 261° |
| 2026-04-26 04:09 | 34.02692 | -117.03126 | 21027 ft | 383 kts | 261° |
| 2026-04-26 04:10 | 34.02272 | -117.06265 | 20679 ft | 377 kts | 261° |
| 2026-04-26 04:10 | 34.01888 | -117.09347 | 20212 ft | 375 kts | 262° |
| 2026-04-26 04:10 | 34.01522 | -117.12444 | 19743 ft | 372 kts | 262° |
| 2026-04-26 04:10 | 34.01171 | -117.15505 | 19121 ft | 366 kts | 262° |
| 2026-04-26 04:11 | 34.00825 | -117.18517 | 18593 ft | 360 kts | 262° |
| 2026-04-26 04:11 | 34.00480 | -117.21494 | 18181 ft | 357 kts | 262° |
| 2026-04-26 04:11 | 34.00134 | -117.24458 | 17727 ft | 356 kts | 262° |
| 2026-04-26 04:11 | 33.99784 | -117.27398 | 17269 ft | 353 kts | 262° |
| 2026-04-26 04:12 | 33.99431 | -117.30320 | 16831 ft | 352 kts | 262° |
| 2026-04-26 04:12 | 33.99080 | -117.33229 | 16387 ft | 349 kts | 262° |
| 2026-04-26 04:12 | 33.98738 | -117.36110 | 15950 ft | 345 kts | 262° |
| 2026-04-26 04:12 | 33.98405 | -117.38946 | 15677 ft | 337 kts | 262° |
| 2026-04-26 04:13 | 33.98080 | -117.41717 | 15293 ft | 333 kts | 262° |
| 2026-04-26 04:13 | 33.97757 | -117.44469 | 14840 ft | 331 kts | 262° |
| 2026-04-26 04:13 | 33.97437 | -117.47194 | 14294 ft | 325 kts | 262° |
| 2026-04-26 04:13 | 33.97220 | -117.49883 | 13847 ft | 322 kts | 269° |
| 2026-04-26 04:14 | 33.97175 | -117.52556 | 13325 ft | 324 kts | 269° |
| 2026-04-26 04:14 | 33.97133 | -117.55202 | 13143 ft | 305 kts | 269° |
| 2026-04-26 04:14 | 33.97093 | -117.57703 | 12740 ft | 293 kts | 269° |
| 2026-04-26 04:14 | 33.97053 | -117.60136 | 12196 ft | 288 kts | 269° |
| 2026-04-26 04:15 | 33.97011 | -117.62541 | 11614 ft | 285 kts | 269° |
| 2026-04-26 04:15 | 33.96968 | -117.64920 | 11028 ft | 283 kts | 269° |
| 2026-04-26 04:15 | 33.96929 | -117.67284 | 10543 ft | 281 kts | 269° |
| 2026-04-26 04:15 | 33.96892 | -117.69629 | 10219 ft | 278 kts | 269° |
| 2026-04-26 04:16 | 33.96850 | -117.71972 | 10157 ft | 280 kts | 269° |
| 2026-04-26 04:16 | 33.96807 | -117.74321 | 10050 ft | 281 kts | 269° |
| 2026-04-26 04:16 | 33.96763 | -117.76681 | 9684 ft | 282 kts | 269° |
| 2026-04-26 04:16 | 33.96722 | -117.79017 | 9267 ft | 272 kts | 269° |
| 2026-04-26 04:17 | 33.96684 | -117.81183 | 9140 ft | 253 kts | 269° |
| 2026-04-26 04:17 | 33.96647 | -117.83223 | 8985 ft | 236 kts | 269° |
| 2026-04-26 04:17 | 33.96609 | -117.85171 | 8617 ft | 229 kts | 269° |
| 2026-04-26 04:17 | 33.96571 | -117.87084 | 8152 ft | 227 kts | 269° |
| 2026-04-26 04:18 | 33.96532 | -117.88977 | 7676 ft | 225 kts | 268° |
| 2026-04-26 04:18 | 33.96493 | -117.90859 | 7201 ft | 224 kts | 269° |
| 2026-04-26 04:18 | 33.96460 | -117.92475 | 6804 ft | 223 kts | 269° |
| 2026-04-26 04:18 | 33.96424 | -117.94332 | 6324 ft | 221 kts | 269° |
| 2026-04-26 04:19 | 33.96387 | -117.96179 | 5839 ft | 220 kts | 269° |
| 2026-04-26 04:19 | 33.96351 | -117.98009 | 5370 ft | 218 kts | 269° |
| 2026-04-26 04:19 | 33.96316 | -117.99780 | 4893 ft | 217 kts | 269° |
| 2026-04-26 04:19 | 33.96281 | -118.01568 | 4491 ft | 215 kts | 269° |
| 2026-04-26 04:20 | 33.96247 | -118.03346 | 4288 ft | 212 kts | 269° |
| 2026-04-26 04:20 | 33.96209 | -118.05131 | 4230 ft | 212 kts | 269° |
| 2026-04-26 04:20 | 33.96172 | -118.06830 | 4170 ft | 192 kts | 269° |
| 2026-04-26 04:20 | 33.96138 | -118.08395 | 4117 ft | 185 kts | 268° |
| 2026-04-26 04:21 | 33.96105 | -118.09940 | 4067 ft | 184 kts | 268° |
| 2026-04-26 04:21 | 33.96073 | -118.11473 | 4016 ft | 182 kts | 269° |
| 2026-04-26 04:21 | 33.96047 | -118.12987 | 3967 ft | 182 kts | 272° |
| 2026-04-26 04:21 | 33.96047 | -118.14517 | 3883 ft | 183 kts | 267° |
| 2026-04-26 04:22 | 33.95954 | -118.16042 | 3696 ft | 182 kts | 265° |
| 2026-04-26 04:22 | 33.95820 | -118.17555 | 3465 ft | 181 kts | 264° |
| 2026-04-26 04:22 | 33.95675 | -118.19054 | 3222 ft | 180 kts | 263° |
| 2026-04-26 04:22 | 33.95527 | -118.20547 | 2991 ft | 179 kts | 263° |
| 2026-04-26 04:23 | 33.95426 | -118.21552 | 2829 ft | 178 kts | 263° |
| 2026-04-26 04:23 | 33.95279 | -118.23018 | 2637 ft | 174 kts | 263° |
| 2026-04-26 04:23 | 33.95136 | -118.24441 | 2373 ft | 172 kts | 263° |
| 2026-04-26 04:23 | 33.94996 | -118.25833 | 2148 ft | 161 kts | 263° |
| 2026-04-26 04:24 | 33.94867 | -118.27105 | 1942 ft | 148 kts | 263° |
| 2026-04-26 04:24 | 33.94745 | -118.28315 | 1744 ft | 143 kts | 263° |
| 2026-04-26 04:24 | 33.94626 | -118.29498 | 1562 ft | 142 kts | 263° |
| 2026-04-26 04:24 | 33.94507 | -118.30675 | 1376 ft | 141 kts | 263° |
| 2026-04-26 04:25 | 33.94388 | -118.31843 | 1191 ft | 140 kts | 264° |
| 2026-04-26 04:25 | 33.94270 | -118.33015 | 1004 ft | 142 kts | 263° |
| 2026-04-26 04:25 | 33.94150 | -118.34194 | 810 ft | 142 kts | 263° |
| 2026-04-26 04:25 | 33.94031 | -118.35369 | 609 ft | 142 kts | 263° |
| 2026-04-26 04:26 | 33.93913 | -118.36532 | 437 ft | 140 kts | 262° |
| 2026-04-26 04:26 | 33.93786 | -118.37706 | 278 ft | 143 kts | 262° |
| 2026-04-26 04:26 | 33.93671 | -118.38889 | 146 ft | 141 kts | 264° |
| 2026-04-26 04:26 | 33.93569 | -118.39900 | 126 ft | 98 kts | 263° |
| 2026-04-26 04:27 | 33.93517 | -118.40446 | 126 ft | 36 kts | 267° |
| 2026-04-26 04:27 | 33.93497 | -118.40650 | 126 ft | 26 kts | 262° |
| 2026-04-26 04:27 | 33.93477 | -118.40927 | 122 ft | 29 kts | 274° |
| 2026-04-26 04:27 | 33.93521 | -118.41131 | 123 ft | 21 kts | 293° |
| 2026-04-26 04:28 | 33.93562 | -118.41232 | 121 ft | 10 kts | 320° |
| 2026-04-26 04:28 | 33.93572 | -118.41241 | 123 ft | 0 kts | 323° |
| 2026-04-26 04:30 | 33.93573 | -118.41243 | 123 ft | 2 kts | 323° |
| 2026-04-26 04:30 | 33.93619 | -118.41263 | 124 ft | 11 kts | 347° |
| 2026-04-26 04:30 | 33.93701 | -118.41272 | 124 ft | 13 kts | 353° |
| 2026-04-26 04:30 | 33.93714 | -118.41274 | 124 ft | 1 kts | 353° |
| 2026-04-26 04:31 | 33.93742 | -118.41262 | 124 ft | 0 kts | 42° |
| 2026-04-26 04:31 | 33.93746 | -118.41258 | 123 ft | 3 kts | 43° |
| 2026-04-26 04:31 | 33.93760 | -118.41206 | 124 ft | 11 kts | 88° |
| 2026-04-26 04:31 | 33.93766 | -118.41091 | 124 ft | 15 kts | 82° |
| 2026-04-26 04:32 | 33.93780 | -118.40963 | 126 ft | 12 kts | 83° |
| 2026-04-26 04:32 | 33.93792 | -118.40850 | 126 ft | 15 kts | 83° |
| 2026-04-26 04:32 | 33.93805 | -118.40718 | 124 ft | 17 kts | 83° |
| 2026-04-26 04:32 | 33.93821 | -118.40566 | 126 ft | 20 kts | 83° |
| 2026-04-26 04:33 | 33.93861 | -118.40526 | 123 ft | 9 kts | 351° |
| 2026-04-26 04:33 | 33.93923 | -118.40514 | 125 ft | 10 kts | 31° |
| 2026-04-26 04:33 | 33.93974 | -118.40477 | 126 ft | 8 kts | 30° |
| 2026-04-26 04:33 | 33.93983 | -118.40472 | 125 ft | 0 kts | 30° |
| 2026-04-26 04:34 | 33.93985 | -118.40470 | 123 ft | 0 kts | 30° |